createdAt,value
2018-08-31T00:02:31.236Z,97559.00
2018-08-31T00:05:56.021Z,97560.00
2018-08-31T00:10:59.472Z,97551.00
2018-08-31T00:13:40.400Z,97548.00
2018-08-31T00:16:20.941Z,97549.00
2018-08-31T00:19:01.357Z,97554.00
2018-08-31T00:21:43.663Z,97553.00
2018-08-31T00:24:41.429Z,97551.00
2018-08-31T00:27:38.697Z,97552.00
2018-08-31T00:30:36.152Z,97545.00
2018-08-31T00:33:53.221Z,97547.00
2018-08-31T00:36:49.543Z,97554.00
2018-08-31T00:39:56.687Z,97552.00
2018-08-31T00:44:56.050Z,97558.00
2018-08-31T00:47:36.737Z,97563.00
2018-08-31T00:50:17.388Z,97571.00
2018-08-31T00:52:58.490Z,97571.00
2018-08-31T00:55:39.010Z,97569.00
2018-08-31T00:58:19.596Z,97567.00
2018-08-31T01:01:00.144Z,97570.00
2018-08-31T01:03:43.784Z,97564.00
2018-08-31T01:06:24.400Z,97557.00
2018-08-31T01:09:05.976Z,97561.00
2018-08-31T01:11:46.788Z,97555.00
2018-08-31T01:14:27.138Z,97566.00
2018-08-31T01:17:07.581Z,97561.00
2018-08-31T01:19:48.160Z,97564.00
2018-08-31T01:22:28.688Z,97563.00
2018-08-31T01:25:10.519Z,97573.00
2018-08-31T01:27:50.971Z,97562.00
2018-08-31T01:30:31.476Z,97564.00
2018-08-31T01:33:13.961Z,97571.00
2018-08-31T01:35:54.468Z,97573.00
2018-08-31T01:38:35.061Z,97576.00
2018-08-31T01:41:16.664Z,97575.00
2018-08-31T01:43:57.260Z,97571.00
2018-08-31T01:46:37.877Z,97583.00
2018-08-31T01:49:18.476Z,97583.00
2018-08-31T01:51:59.042Z,97577.00
2018-08-31T01:54:40.808Z,97589.00
2018-08-31T01:57:21.356Z,97595.00
2018-08-31T02:00:01.971Z,97587.00
2018-08-31T02:02:45.363Z,97593.00
2018-08-31T02:05:25.856Z,97595.00
2018-08-31T02:08:06.865Z,97594.00
2018-08-31T02:10:47.335Z,97594.00
2018-08-31T02:13:27.938Z,97590.00
2018-08-31T02:16:08.404Z,97584.00
2018-08-31T02:44:52.092Z,97584.00
2018-08-31T02:47:34.118Z,97581.00
2018-08-31T02:50:14.748Z,97583.00
2018-08-31T02:52:55.248Z,97582.00
2018-08-31T02:55:35.676Z,97586.00
2018-08-31T02:58:16.143Z,97580.00
2018-08-31T03:00:56.529Z,97584.00
2018-08-31T03:03:37.280Z,97586.00
2018-08-31T03:06:17.854Z,97586.00
2018-08-31T03:09:01.734Z,97587.00
2018-08-31T03:11:42.504Z,97589.00
2018-08-31T03:14:22.892Z,97571.00
2018-08-31T03:17:04.677Z,97575.00
2018-08-31T03:19:45.236Z,97569.00
2018-08-31T03:22:25.833Z,97586.00
2018-08-31T03:25:06.671Z,97576.00
2018-08-31T03:27:47.144Z,97567.00
2018-08-31T03:30:28.540Z,97581.00
2018-08-31T03:33:09.059Z,97586.00
2018-08-31T03:35:49.681Z,97585.00
2018-08-31T03:38:32.815Z,97588.00
2018-08-31T03:41:13.360Z,97589.00
2018-08-31T03:43:53.936Z,97588.00
2018-08-31T03:46:34.476Z,97594.00
2018-08-31T03:49:15.056Z,97597.00
2018-08-31T03:51:55.593Z,97597.00
2018-08-31T03:54:36.191Z,97585.00
2018-08-31T03:57:16.596Z,97584.00
2018-08-31T03:59:58.890Z,97589.00
2018-08-31T04:02:39.332Z,97588.00
2018-08-31T04:05:19.728Z,97598.00
2018-08-31T04:08:03.396Z,97592.00
2018-08-31T04:10:43.920Z,97589.00
2018-08-31T04:13:24.411Z,97598.00
2018-08-31T04:16:04.963Z,97593.00
2018-08-31T04:18:45.385Z,97594.00
2018-08-31T04:21:25.984Z,97602.00
2018-08-31T04:24:06.528Z,97601.00
2018-08-31T04:26:47.712Z,97600.00
2018-08-31T04:29:31.772Z,97601.00
2018-08-31T04:32:12.729Z,97595.00
2018-08-31T04:34:53.235Z,97591.00
2018-08-31T04:37:34.710Z,97596.00
2018-08-31T04:40:15.260Z,97596.00
2018-08-31T04:42:55.850Z,97600.00
2018-08-31T04:45:36.304Z,97604.00
2018-08-31T04:48:16.708Z,97600.00
2018-08-31T04:50:58.915Z,97598.00
2018-08-31T04:53:39.473Z,97603.00
2018-08-31T04:56:19.841Z,97606.00
2018-08-31T04:59:04.984Z,97599.00
2018-08-31T05:01:45.528Z,97617.00
2018-08-31T05:04:26.148Z,97611.00
2018-08-31T05:07:06.744Z,97626.00
2018-08-31T05:09:47.277Z,97627.00
2018-08-31T05:12:29.844Z,97623.00
2018-08-31T05:15:10.400Z,97622.00
2018-08-31T05:17:50.902Z,97626.00
2018-08-31T05:20:33.562Z,97626.00
2018-08-31T05:23:14.248Z,97627.00
2018-08-31T05:25:54.933Z,97631.00
2018-08-31T05:28:35.417Z,97632.00
2018-08-31T05:31:15.987Z,97635.00
2018-08-31T05:33:56.654Z,97634.00
2018-08-31T05:36:37.090Z,97633.00
2018-08-31T05:39:17.641Z,97633.00
2018-08-31T05:42:01.824Z,97637.00
2018-08-31T05:44:42.253Z,97644.00
2018-08-31T05:47:23.132Z,97638.00
2018-08-31T05:50:05.223Z,97648.00
2018-08-31T05:52:45.744Z,97642.00
2018-08-31T05:55:26.324Z,97635.00
2018-08-31T05:58:06.815Z,97638.00
2018-08-31T06:00:47.355Z,97649.00
2018-08-31T06:03:29.039Z,97638.00
2018-08-31T06:06:09.449Z,97647.00
2018-08-31T06:08:50.061Z,97649.00
2018-08-31T06:11:33.568Z,97648.00
2018-08-31T06:14:14.124Z,97645.00
2018-08-31T06:16:54.819Z,97648.00
2018-08-31T06:19:35.261Z,97648.00
2018-08-31T06:22:16.572Z,97642.00
2018-08-31T06:24:57.159Z,97649.00
2018-08-31T06:27:37.579Z,97642.00
2018-08-31T06:30:18.775Z,97646.00
2018-08-31T06:33:01.924Z,97644.00
2018-08-31T06:35:42.647Z,97653.00
2018-08-31T06:38:23.095Z,97646.00
2018-08-31T06:41:04.643Z,97660.00
2018-08-31T06:43:45.180Z,97651.00
2018-08-31T06:46:25.743Z,97659.00
2018-08-31T06:49:06.308Z,97650.00
2018-08-31T06:51:46.838Z,97655.00
2018-08-31T06:54:28.714Z,97659.00
2018-08-31T06:57:23.212Z,97656.00
2018-08-31T07:00:05.333Z,97662.00
2018-08-31T07:02:46.065Z,97659.00
2018-08-31T07:05:27.123Z,97664.00
2018-08-31T07:08:07.720Z,97661.00
2018-08-31T07:10:48.305Z,97662.00
2018-08-31T07:13:31.931Z,97657.00
2018-08-31T07:16:12.415Z,97664.00
2018-08-31T07:18:53.011Z,97670.00
2018-08-31T07:21:34.875Z,97670.00
2018-08-31T07:24:15.499Z,97664.00
2018-08-31T07:26:56.220Z,97662.00
2018-08-31T07:29:36.751Z,97657.00
2018-08-31T07:32:17.384Z,97664.00
2018-08-31T07:35:02.147Z,97664.00
2018-08-31T07:37:42.588Z,97667.00
2018-08-31T07:40:24.332Z,97669.00
2018-08-31T07:43:04.955Z,97665.00
2018-08-31T07:45:45.622Z,97658.00
2018-08-31T07:48:26.227Z,97666.00
2018-08-31T07:51:06.860Z,97668.00
2018-08-31T07:53:47.615Z,97670.00
2018-08-31T07:56:28.748Z,97674.00
2018-08-31T07:59:09.456Z,97667.00
2018-08-31T08:01:50.863Z,97673.00
2018-08-31T08:04:33.420Z,97668.00
2018-08-31T08:07:14.209Z,97671.00
2018-08-31T08:09:54.759Z,97669.00
2018-08-31T08:12:35.317Z,97681.00
2018-08-31T08:15:15.887Z,97669.00
2018-08-31T08:17:56.287Z,97670.00
2018-08-31T08:20:36.930Z,97671.00
2018-08-31T08:23:17.543Z,97666.00
2018-08-31T08:25:59.032Z,97670.00
2018-08-31T08:28:39.631Z,97669.00
2018-08-31T08:31:21.180Z,97670.00
2018-08-31T08:34:03.552Z,97668.00
2018-08-31T08:36:44.367Z,97660.00
2018-08-31T08:39:24.909Z,97672.00
2018-08-31T08:42:05.506Z,97670.00
2018-08-31T08:44:45.933Z,97665.00
2018-08-31T08:47:26.532Z,97674.00
2018-08-31T08:50:07.220Z,97675.00
2018-08-31T08:52:47.797Z,97680.00
2018-08-31T08:55:30.264Z,97684.00
2018-08-31T08:58:10.859Z,97687.00
2018-08-31T09:00:52.011Z,97677.00
2018-08-31T09:03:34.157Z,97683.00
2018-08-31T09:06:15.392Z,97682.00
2018-08-31T09:08:55.894Z,97677.00
2018-08-31T09:11:37.860Z,97674.00
2018-08-31T09:14:18.484Z,97675.00
2018-08-31T09:17:01.981Z,97677.00
2018-08-31T09:19:43.146Z,97676.00
2018-08-31T09:22:23.731Z,97678.00
2018-08-31T09:25:04.935Z,97686.00
2018-08-31T09:27:45.388Z,97681.00
2018-08-31T09:30:32.077Z,97678.00
2018-08-31T09:33:12.574Z,97675.00
2018-08-31T09:35:53.206Z,97677.00
2018-08-31T09:38:34.628Z,97677.00
2018-08-31T09:41:15.369Z,97671.00
2018-08-31T09:43:55.918Z,97677.00
2018-08-31T09:46:36.503Z,97676.00
2018-08-31T09:49:17.110Z,97674.00
2018-08-31T09:51:58.761Z,97670.00
2018-08-31T09:54:39.407Z,97668.00
2018-08-31T09:57:20.159Z,97672.00
2018-08-31T10:00:04.892Z,97670.00
2018-08-31T10:02:50.615Z,97676.00
2018-08-31T10:05:33.535Z,97668.00
2018-08-31T10:08:14.088Z,97674.00
2018-08-31T10:10:54.807Z,97673.00
2018-08-31T10:13:35.329Z,97678.00
2018-08-31T10:16:15.775Z,97675.00
2018-08-31T10:18:56.398Z,97674.00
2018-08-31T10:21:38.482Z,97677.00
2018-08-31T10:24:19.034Z,97680.00
2018-08-31T10:27:03.071Z,97673.00
2018-08-31T10:29:43.647Z,97671.00
2018-08-31T10:32:24.129Z,97680.00
2018-08-31T10:35:04.732Z,97676.00
2018-08-31T10:37:45.271Z,97680.00
2018-08-31T10:40:26.395Z,97676.00
2018-08-31T10:43:06.821Z,97677.00
2018-08-31T10:45:47.426Z,97674.00
2018-08-31T10:48:29.105Z,97673.00
2018-08-31T10:51:09.865Z,97674.00
2018-08-31T10:53:50.584Z,97676.00
2018-08-31T10:56:33.800Z,97672.00
2018-08-31T10:59:15.376Z,97668.00
2018-08-31T11:01:55.956Z,97662.00
2018-08-31T11:04:36.567Z,97661.00
2018-08-31T11:07:17.178Z,97659.00
2018-08-31T11:09:59.312Z,97665.00
2018-08-31T11:12:39.908Z,97661.00
2018-08-31T11:15:22.124Z,97666.00
2018-08-31T11:18:06.112Z,97667.00
2018-08-31T11:20:46.768Z,97663.00
2018-08-31T11:23:29.345Z,97662.00
2018-08-31T11:26:09.921Z,97660.00
2018-08-31T11:28:50.496Z,97659.00
2018-08-31T11:31:33.552Z,97667.00
2018-08-31T11:34:14.080Z,97663.00
2018-08-31T11:36:54.567Z,97672.00
2018-08-31T11:39:35.154Z,97671.00
2018-08-31T11:42:15.717Z,97662.00
2018-08-31T11:44:56.477Z,97668.00
2018-08-31T11:47:37.157Z,97666.00
2018-08-31T11:50:17.614Z,97671.00
2018-08-31T11:53:00.172Z,97665.00
2018-08-31T11:55:40.820Z,97654.00
2018-08-31T11:58:21.461Z,97659.00
2018-08-31T12:01:03.617Z,97659.00
2018-08-31T12:03:44.442Z,97661.00
2018-08-31T12:06:25.365Z,97661.00
2018-08-31T12:09:08.470Z,97653.00
2018-08-31T12:11:48.981Z,97653.00
2018-08-31T12:14:33.128Z,97658.00
2018-08-31T12:17:13.799Z,97649.00
2018-08-31T12:19:54.335Z,97650.00
2018-08-31T12:22:34.939Z,97655.00
2018-08-31T12:25:15.560Z,97646.00
2018-08-31T12:27:56.153Z,97641.00
2018-08-31T12:30:36.745Z,97641.00
2018-08-31T12:33:17.428Z,97647.00
2018-08-31T12:35:59.378Z,97641.00
2018-08-31T12:38:39.921Z,97649.00
2018-08-31T12:41:20.380Z,97643.00
2018-08-31T12:44:03.607Z,97638.00
2018-08-31T12:46:44.170Z,97641.00
2018-08-31T12:49:24.697Z,97644.00
2018-08-31T12:52:05.387Z,97644.00
2018-08-31T12:54:46.040Z,97632.00
2018-08-31T12:57:26.600Z,97622.00
2018-08-31T13:00:08.428Z,97627.00
2018-08-31T13:02:49.894Z,97626.00
2018-08-31T13:05:32.797Z,97628.00
2018-08-31T13:08:13.867Z,97627.00
2018-08-31T13:10:54.496Z,97630.00
2018-08-31T13:13:35.081Z,97626.00
2018-08-31T13:16:15.652Z,97620.00
2018-08-31T13:18:56.419Z,97628.00
2018-08-31T13:21:37.094Z,97631.00
2018-08-31T13:24:17.700Z,97617.00
2018-08-31T13:27:00.061Z,97617.00
2018-08-31T13:29:40.654Z,97612.00
2018-08-31T13:32:21.702Z,97613.00
2018-08-31T13:35:05.703Z,97615.00
2018-08-31T13:37:49.478Z,97615.00
2018-08-31T13:40:32.093Z,97614.00
2018-08-31T13:43:12.774Z,97615.00
2018-08-31T13:45:54.214Z,97617.00
2018-08-31T13:48:36.144Z,97608.00
2018-08-31T13:51:16.892Z,97613.00
2018-08-31T13:53:57.406Z,97611.00
2018-08-31T13:56:38.128Z,97618.00
2018-08-31T13:59:18.774Z,97610.00
2018-08-31T14:02:00.511Z,97611.00
2018-08-31T14:04:41.108Z,97617.00
2018-08-31T14:07:21.813Z,97617.00
2018-08-31T14:10:03.597Z,97620.00
2018-08-31T14:12:44.313Z,97617.00
2018-08-31T14:15:24.859Z,97610.00
2018-08-31T14:18:05.859Z,97613.00
2018-08-31T14:20:46.981Z,97619.00
2018-08-31T14:23:27.492Z,97623.00
2018-08-31T14:26:08.211Z,97608.00
2018-08-31T14:28:48.884Z,97608.00
2018-08-31T14:31:30.484Z,97608.00
2018-08-31T14:34:11.264Z,97608.00
2018-08-31T14:36:52.356Z,97618.00
2018-08-31T14:39:34.224Z,97620.00
2018-08-31T14:42:14.918Z,97618.00
2018-08-31T14:44:55.968Z,97622.00
2018-08-31T14:47:36.664Z,97623.00
2018-08-31T14:50:17.412Z,97618.00
2018-08-31T14:52:57.877Z,97616.00
2018-08-31T14:55:38.399Z,97614.00
2018-08-31T14:58:18.977Z,97624.00
2018-08-31T15:01:00.684Z,97620.00
2018-08-31T15:03:41.349Z,97617.00
2018-08-31T15:06:21.916Z,97618.00
2018-08-31T15:09:04.024Z,97621.00
2018-08-31T15:11:44.629Z,97607.00
2018-08-31T15:14:25.220Z,97615.00
2018-08-31T15:17:06.083Z,97617.00
2018-08-31T15:19:46.635Z,97613.00
2018-08-31T15:22:27.328Z,97617.00
2018-08-31T15:25:09.121Z,97623.00
2018-08-31T15:27:50.068Z,97625.00
2018-08-31T15:30:33.844Z,97620.00
2018-08-31T15:33:14.394Z,97613.00
2018-08-31T15:35:55.549Z,97620.00
2018-08-31T15:38:36.209Z,97625.00
2018-08-31T15:41:16.735Z,97628.00
2018-08-31T15:43:57.509Z,97618.00
2018-08-31T15:46:38.003Z,97617.00
2018-08-31T15:49:18.473Z,97613.00
2018-08-31T15:52:00.303Z,97616.00
2018-08-31T15:54:40.888Z,97608.00
2018-08-31T15:57:21.606Z,97612.00
2018-08-31T16:00:03.837Z,97613.00
2018-08-31T16:02:44.321Z,97616.00
2018-08-31T16:05:25.034Z,97617.00
2018-08-31T16:08:05.635Z,97624.00
2018-08-31T16:10:46.827Z,97612.00
2018-08-31T16:13:33.739Z,97611.00
2018-08-31T16:16:14.363Z,97612.00
2018-08-31T16:18:55.024Z,97621.00
2018-08-31T16:21:35.631Z,97613.00
2018-08-31T16:24:16.048Z,97616.00
2018-08-31T16:26:56.834Z,97626.00
2018-08-31T16:29:37.367Z,97615.00
2018-08-31T16:32:18.210Z,97616.00
2018-08-31T16:35:00.287Z,97612.00
2018-08-31T16:37:40.960Z,97618.00
2018-08-31T16:40:21.936Z,97622.00
2018-08-31T16:43:05.436Z,97627.00
2018-08-31T16:45:46.160Z,97617.00
2018-08-31T16:48:26.768Z,97622.00
2018-08-31T16:51:07.843Z,97615.00
2018-08-31T16:53:48.604Z,97619.00
2018-08-31T16:56:28.998Z,97621.00
2018-08-31T16:59:09.599Z,97622.00
2018-08-31T17:01:50.194Z,97629.00
2018-08-31T17:04:33.729Z,97627.00
2018-08-31T17:07:14.440Z,97625.00
2018-08-31T17:09:56.013Z,97632.00
2018-08-31T17:12:36.653Z,97628.00
2018-08-31T17:15:17.679Z,97638.00
2018-08-31T17:17:59.125Z,97641.00
2018-08-31T17:20:40.537Z,97639.00
2018-08-31T17:23:23.210Z,97636.00
2018-08-31T17:26:05.316Z,97641.00
2018-08-31T17:29:55.032Z,97637.00
2018-08-31T17:32:42.092Z,97637.00
2018-08-31T17:35:27.974Z,97634.00
2018-08-31T17:38:09.065Z,97626.00
2018-08-31T17:40:50.598Z,97638.00
2018-08-31T17:43:33.789Z,97644.00
2018-08-31T17:46:14.865Z,97638.00
2018-08-31T17:48:55.922Z,97642.00
2018-08-31T17:51:36.832Z,97635.00
2018-08-31T17:54:17.436Z,97645.00
2018-08-31T17:56:58.049Z,97653.00
2018-08-31T17:59:38.757Z,97649.00
2018-08-31T18:02:19.336Z,97646.00
2018-08-31T18:05:00.976Z,97651.00
2018-08-31T18:07:45.320Z,97645.00
2018-08-31T18:10:25.945Z,97641.00
2018-08-31T18:13:06.959Z,97642.00
2018-08-31T18:15:47.758Z,97647.00
2018-08-31T18:18:29.583Z,97653.00
2018-08-31T18:21:10.888Z,97653.00
2018-08-31T18:23:56.100Z,97645.00
2018-08-31T18:26:37.568Z,97657.00
2018-08-31T18:29:18.193Z,97657.00
2018-08-31T18:31:58.801Z,97663.00
2018-08-31T18:34:39.243Z,97651.00
2018-08-31T18:37:19.955Z,97648.00
2018-08-31T18:40:10.873Z,97648.00
2018-08-31T18:42:52.400Z,97642.00
2018-08-31T18:45:35.210Z,97651.00
2018-08-31T18:48:16.688Z,97645.00
2018-08-31T18:50:57.277Z,97651.00
2018-08-31T18:53:37.829Z,97645.00
2018-08-31T18:56:18.781Z,97651.00
2018-08-31T18:58:59.400Z,97650.00
2018-08-31T19:01:40.463Z,97647.00
2018-08-31T19:04:22.254Z,97633.00
2018-08-31T19:07:05.026Z,97635.00
2018-08-31T19:09:46.065Z,97633.00
2018-08-31T19:12:28.642Z,97628.00
2018-08-31T19:15:12.420Z,97638.00
2018-08-31T19:17:53.917Z,97644.00
2018-08-31T19:20:36.011Z,97645.00
2018-08-31T19:23:16.443Z,97638.00
2018-08-31T19:25:57.325Z,97638.00
2018-08-31T19:28:39.671Z,97629.00
2018-08-31T19:31:20.767Z,97630.00
2018-08-31T19:34:01.768Z,97625.00
2018-08-31T19:36:42.400Z,97623.00
2018-08-31T19:39:23.068Z,97631.00
2018-08-31T19:42:07.004Z,97632.00
2018-08-31T19:44:48.724Z,97635.00
2018-08-31T19:47:29.253Z,97638.00
2018-08-31T19:50:09.910Z,97641.00
2018-08-31T19:52:50.611Z,97639.00
2018-08-31T19:55:32.017Z,97646.00
2018-08-31T19:58:12.732Z,97646.00
2018-08-31T20:00:58.955Z,97644.00
2018-08-31T20:03:39.424Z,97643.00
2018-08-31T20:06:20.178Z,97636.00
2018-08-31T20:09:00.813Z,97642.00
2018-08-31T20:11:42.099Z,97636.00
2018-08-31T20:14:22.631Z,97644.00
2018-08-31T20:17:06.318Z,97646.00
2018-08-31T20:19:47.030Z,97642.00
2018-08-31T20:22:28.321Z,97654.00
2018-08-31T20:25:08.956Z,97662.00
2018-08-31T20:28:07.427Z,97666.00
2018-08-31T20:30:47.884Z,97660.00
2018-08-31T20:33:28.628Z,97654.00
2018-08-31T20:36:09.996Z,97655.00
2018-08-31T20:38:50.544Z,97657.00
2018-08-31T20:41:31.224Z,97661.00
2018-08-31T20:44:11.884Z,97662.00
2018-08-31T20:46:52.660Z,97663.00
2018-08-31T20:49:34.712Z,97659.00
2018-08-31T20:52:16.299Z,97659.00
2018-08-31T20:54:57.013Z,97662.00
2018-08-31T20:57:38.930Z,97663.00
2018-08-31T21:00:19.491Z,97663.00
2018-08-31T21:03:00.143Z,97656.00
2018-08-31T21:05:40.659Z,97661.00
2018-08-31T21:08:21.495Z,97660.00
2018-08-31T21:11:03.884Z,97657.00
2018-08-31T21:13:44.676Z,97664.00
2018-08-31T21:16:25.255Z,97667.00
2018-08-31T21:19:07.441Z,97662.00
2018-08-31T21:21:48.217Z,97666.00
2018-08-31T21:24:28.713Z,97666.00
2018-08-31T21:27:09.272Z,97660.00
2018-08-31T21:29:49.904Z,97661.00
2018-08-31T21:32:30.312Z,97655.00
2018-08-31T21:35:11.162Z,97651.00
2018-08-31T21:37:51.585Z,97650.00
2018-08-31T21:40:33.258Z,97651.00
2018-08-31T21:43:13.795Z,97646.00
2018-08-31T21:45:54.870Z,97648.00
2018-08-31T21:48:38.387Z,97654.00
2018-08-31T21:51:19.255Z,97647.00
2018-08-31T21:54:07.688Z,97647.00
2018-08-31T21:56:48.259Z,97641.00
2018-08-31T21:59:28.849Z,97633.00
2018-08-31T22:02:09.452Z,97642.00
2018-08-31T22:04:50.096Z,97635.00
2018-08-31T22:07:30.741Z,97643.00
2018-08-31T22:10:11.343Z,97643.00
2018-08-31T22:12:52.232Z,97642.00
2018-08-31T22:15:34.471Z,97640.00
2018-08-31T22:18:14.961Z,97652.00
2018-08-31T22:20:55.833Z,97642.00
2018-08-31T22:23:38.384Z,97643.00
2018-08-31T22:26:19.043Z,97633.00
2018-08-31T22:29:07.732Z,97641.00
2018-08-31T22:31:48.159Z,97638.00
2018-08-31T22:34:28.864Z,97631.00
2018-08-31T22:37:09.483Z,97637.00
2018-08-31T22:39:50.271Z,97632.00
2018-08-31T22:42:30.826Z,97639.00
2018-08-31T22:45:15.205Z,97645.00
2018-08-31T22:47:55.865Z,97641.00
2018-08-31T22:50:38.304Z,97651.00
2018-08-31T22:53:18.926Z,97643.00
2018-08-31T22:55:59.728Z,97644.00
2018-08-31T22:58:40.340Z,97640.00
2018-08-31T23:01:20.869Z,97630.00
2018-08-31T23:04:01.406Z,97630.00
2018-08-31T23:06:41.971Z,97630.00
2018-08-31T23:09:22.525Z,97633.00
2018-08-31T23:12:03.870Z,97628.00
2018-08-31T23:14:44.461Z,97628.00
2018-08-31T23:17:27.782Z,97631.00
2018-08-31T23:20:09.912Z,97635.00
2018-08-31T23:22:51.496Z,97624.00
2018-08-31T23:25:37.611Z,97629.00
2018-08-31T23:28:22.576Z,97620.00
2018-08-31T23:31:03.705Z,97623.00
2018-08-31T23:33:44.402Z,97623.00
2018-08-31T23:36:25.092Z,97615.00
2018-08-31T23:39:10.494Z,97618.00
2018-08-31T23:41:51.081Z,97618.00
2018-08-31T23:44:31.581Z,97622.00
2018-08-31T23:47:12.243Z,97610.00
2018-08-31T23:49:52.698Z,97617.00
2018-08-31T23:52:33.714Z,97607.00
2018-08-31T23:55:14.356Z,97612.00
2018-08-31T23:57:55.033Z,97612.00
